Time;durP1;ratioP1;P1;durP2;ratioP2;P2;SDS_P1;SDS_P2;PMS_P1;PMS_P2;Temp;Humidity;BMP_temperature;BMP_pressure;BME280_temperature;BME280_humidity;BME280_pressure;Samples;Min_cycle;Max_cycle;Signal;HPM_P1;HPM_P2
2023/02/10 00:01:15;;;;;;;0.50;0.50;;;18.20;69.00;;;;;;6217084;23;20004;-68
2023/02/10 00:03:41;;;;;;;0.43;0.38;;;18.20;69.00;;;;;;6217036;23;20127;-68
2023/02/10 00:06:07;;;;;;;0.93;0.40;;;18.20;69.10;;;;;;6216774;23;20036;-67
2023/02/10 00:08:32;;;;;;;0.75;0.38;;;18.10;69.10;;;;;;6216707;23;20004;-68
2023/02/10 00:10:59;;;;;;;0.60;0.40;;;18.10;69.20;;;;;;6190510;23;20009;-68
2023/02/10 00:13:25;;;;;;;0.52;0.40;;;18.10;69.20;;;;;;6215189;23;20039;-67
2023/02/10 00:15:51;;;;;;;1.10;0.50;;;18.10;69.50;;;;;;6190399;23;19997;-67
2023/02/10 00:18:16;;;;;;;0.73;0.60;;;18.10;69.70;;;;;;6216774;23;19996;-67
2023/02/10 00:20:42;;;;;;;0.95;0.40;;;18.10;69.70;;;;;;6215028;23;20011;-67
2023/02/10 00:23:08;;;;;;;0.65;0.40;;;18.00;69.80;;;;;;6216814;23;20019;-68
2023/02/10 00:25:36;;;;;;;0.85;0.50;;;18.00;69.80;;;;;;6215345;23;20425;-67
2023/02/10 00:28:02;;;;;;;0.45;0.40;;;18.00;69.90;;;;;;6216460;23;20017;-67
2023/02/10 00:30:28;;;;;;;0.40;0.40;;;18.00;69.90;;;;;;6216777;23;20009;-67
2023/02/10 00:32:54;;;;;;;2.80;0.50;;;18.00;70.10;;;;;;6214904;23;20060;-68
2023/02/10 00:35:19;;;;;;;0.90;0.40;;;18.00;70.20;;;;;;6216329;23;20000;-68
2023/02/10 00:37:45;;;;;;;0.77;0.65;;;17.90;70.30;;;;;;6216470;23;19996;-68
2023/02/10 00:40:10;;;;;;;0.63;0.45;;;17.90;70.30;;;;;;6216695;23;19996;-68
2023/02/10 00:42:36;;;;;;;0.88;0.40;;;17.90;70.40;;;;;;6216529;23;20000;-67
2023/02/10 00:45:02;;;;;;;0.70;0.43;;;17.90;70.40;;;;;;6215273;23;20001;-68
2023/02/10 00:47:28;;;;;;;0.45;0.40;;;17.90;70.50;;;;;;6216479;23;20050;-67
2023/02/10 00:49:53;;;;;;;1.83;0.50;;;17.90;70.50;;;;;;6216297;23;20047;-68
2023/02/10 00:52:19;;;;;;;0.93;0.45;;;17.90;70.50;;;;;;6214481;23;20596;-67
2023/02/10 00:54:44;;;;;;;0.63;0.57;;;17.80;70.50;;;;;;6214824;23;20000;-67
2023/02/10 00:57:10;;;;;;;1.08;0.52;;;17.80;70.50;;;;;;6214865;23;20001;-67
2023/02/10 00:59:36;;;;;;;0.40;0.40;;;17.80;70.50;;;;;;6216484;23;19997;-67
2023/02/10 01:02:01;;;;;;;0.50;0.50;;;17.80;70.50;;;;;;6216031;23;19996;-67
2023/02/10 01:04:27;;;;;;;0.40;0.40;;;17.80;70.50;;;;;;6216035;23;20028;-67
2023/02/10 01:06:53;;;;;;;0.63;0.40;;;17.80;70.60;;;;;;6216551;23;20046;-67
2023/02/10 01:09:18;;;;;;;1.60;0.40;;;17.70;70.50;;;;;;6216288;23;20030;-67
2023/02/10 01:11:44;;;;;;;0.40;0.40;;;17.70;70.50;;;;;;6216170;23;20009;-67
2023/02/10 01:14:10;;;;;;;0.30;0.30;;;17.70;70.50;;;;;;6216026;23;20441;-67
2023/02/10 01:16:35;;;;;;;0.52;0.40;;;17.70;70.50;;;;;;6216060;23;20429;-68
2023/02/10 01:19:01;;;;;;;0.50;0.50;;;17.70;70.50;;;;;;6216053;23;20000;-67
2023/02/10 01:21:27;;;;;;;0.63;0.50;;;17.70;70.60;;;;;;6214559;23;19997;-67
2023/02/10 01:23:52;;;;;;;0.30;0.30;;;17.70;70.60;;;;;;6189778;23;20035;-67
2023/02/10 01:26:18;;;;;;;1.65;0.40;;;17.70;70.60;;;;;;6216013;23;20008;-67
2023/02/10 01:28:44;;;;;;;0.88;0.43;;;17.60;70.70;;;;;;6214356;23;20016;-67
2023/02/10 01:31:11;;;;;;;0.30;0.30;;;17.60;70.60;;;;;;6214448;23;20054;-68
2023/02/10 01:33:37;;;;;;;0.47;0.47;;;17.60;70.60;;;;;;6215743;23;20036;-68
2023/02/10 01:36:06;;;;;;;1.88;0.50;;;17.60;70.70;;;;;;6214370;23;20000;-68
2023/02/10 01:38:32;;;;;;;0.80;0.70;;;17.60;70.70;;;;;;6216090;23;19997;-68
2023/02/10 01:40:58;;;;;;;0.47;0.40;;;17.50;70.80;;;;;;6189528;23;20005;-68
2023/02/10 01:43:23;;;;;;;1.17;0.43;;;17.50;70.80;;;;;;6215775;23;20009;-67
2023/02/10 01:45:49;;;;;;;0.55;0.40;;;17.50;70.90;;;;;;6216016;23;20004;-67
2023/02/10 01:48:14;;;;;;;0.65;0.50;;;17.50;70.90;;;;;;6215748;23;20429;-67
2023/02/10 01:50:45;;;;;;;0.52;0.40;;;17.50;70.90;;;;;;6215619;23;20000;-67
2023/02/10 01:53:11;;;;;;;4.38;0.60;;;17.50;72.00;;;;;;6190167;23;20050;-67
2023/02/10 01:55:37;;;;;;;0.70;0.70;;;17.50;71.00;;;;;;6189330;23;20000;-67
2023/02/10 01:58:05;;;;;;;0.55;0.40;;;17.50;71.00;;;;;;6214331;23;19996;-67
2023/02/10 02:00:30;;;;;;;0.50;0.40;;;17.40;71.20;;;;;;6215204;23;20000;-68
2023/02/10 02:02:56;;;;;;;0.45;0.30;;;17.40;71.40;;;;;;6216173;23;20507;-67
2023/02/10 02:05:27;;;;;;;3.78;0.50;;;17.40;71.40;;;;;;6188607;23;20007;-67
2023/02/10 02:07:53;;;;;;;0.43;0.40;;;17.40;71.30;;;;;;6214312;23;20072;-67
2023/02/10 02:10:19;;;;;;;0.40;0.35;;;17.40;71.40;;;;;;6215592;23;20024;-68
2023/02/10 02:12:55;;;;;;;0.50;0.50;;;17.40;71.40;;;;;;6215690;23;20424;-68
2023/02/10 02:15:41;;;;;;;1.10;0.50;;;17.40;71.40;;;;;;6213754;23;20000;-68
2023/02/10 02:18:26;;;;;;;0.28;0.20;;;17.40;71.40;;;;;;6214180;23;19997;-68
2023/02/10 02:20:51;;;;;;;0.95;0.30;;;17.30;71.40;;;;;;6215650;23;20067;-67
2023/02/10 02:23:30;;;;;;;0.35;0.35;;;17.30;71.40;;;;;;6215603;23;20433;-67
2023/02/10 02:26:07;;;;;;;1.75;0.40;;;17.30;71.50;;;;;;6214203;23;20005;-67
2023/02/10 02:29:17;;;;;;;0.70;0.30;;;17.30;71.60;;;;;;6215195;23;20047;-67
2023/02/10 02:31:49;;;;;;;0.28;0.25;;;17.30;71.70;;;;;;6215411;23;20330;-68
2023/02/10 02:34:26;;;;;;;0.38;0.30;;;17.30;71.70;;;;;;6215546;23;20008;-67
2023/02/10 02:36:57;;;;;;;0.40;0.40;;;17.30;72.20;;;;;;6215683;23;19997;-67
2023/02/10 02:39:23;;;;;;;0.82;0.32;;;17.20;71.70;;;;;;6214002;23;20499;-67
2023/02/10 02:42:12;;;;;;;0.40;0.40;;;17.20;71.70;;;;;;6213706;23;20000;-67
2023/02/10 02:44:37;;;;;;;0.60;0.50;;;17.20;71.70;;;;;;6215300;23;20433;-67
2023/02/10 02:47:46;;;;;;;0.35;0.30;;;17.20;71.90;;;;;;6189104;23;20071;-67
2023/02/10 02:50:18;;;;;;;0.63;0.40;;;17.20;71.80;;;;;;6193803;23;20036;-68
2023/02/10 02:53:11;;;;;;;1.20;0.50;;;17.20;71.90;;;;;;6215236;23;20039;-67
2023/02/10 02:55:48;;;;;;;0.40;0.40;;;17.20;71.90;;;;;;6215240;23;20001;-68
2023/02/10 02:58:40;;;;;;;0.73;0.30;;;17.20;71.90;;;;;;6215459;23;20012;-67
2023/02/10 03:01:12;;;;;;;1.30;0.43;;;17.10;72.00;;;;;;6094073;23;20007;-67
2023/02/10 03:03:38;;;;;;;0.40;0.30;;;17.10;71.90;;;;;;6071007;23;20034;-67
2023/02/10 03:06:04;;;;;;;0.43;0.40;;;17.10;71.90;;;;;;6094017;23;20432;-68
2023/02/10 03:08:30;;;;;;;0.40;0.40;;;17.10;71.90;;;;;;6069880;23;20522;-67
2023/02/10 03:10:56;;;;;;;0.82;0.50;;;17.10;72.10;;;;;;6093926;23;20048;-68
2023/02/10 03:13:22;;;;;;;0.30;0.30;;;17.10;72.00;;;;;;6093721;23;20459;-67
2023/02/10 03:15:48;;;;;;;0.50;0.40;;;17.10;72.10;;;;;;6093802;23;20316;-67
2023/02/10 03:18:14;;;;;;;0.25;0.25;;;17.10;72.10;;;;;;6070285;23;20003;-67
2023/02/10 03:20:40;;;;;;;0.82;0.50;;;17.00;72.10;;;;;;6069757;23;20009;-67
2023/02/10 03:23:06;;;;;;;0.30;0.30;;;17.00;72.40;;;;;;6094069;23;20018;-67
2023/02/10 03:25:32;;;;;;;0.50;0.40;;;17.00;72.50;;;;;;6094324;23;20455;-68
2023/02/10 03:27:57;;;;;;;1.00;0.50;;;17.00;72.40;;;;;;6069682;23;20050;-67
2023/02/10 03:30:23;;;;;;;0.57;0.30;;;17.00;72.70;;;;;;6070150;23;20007;-68
2023/02/10 03:32:51;;;;;;;0.57;0.30;;;17.00;72.70;;;;;;6069791;23;20010;-67
2023/02/10 03:35:17;;;;;;;0.63;0.40;;;17.00;72.80;;;;;;6094011;23;20003;-68
2023/02/10 03:37:42;;;;;;;0.28;0.28;;;17.00;72.90;;;;;;6146501;23;20088;-67
2023/02/10 03:40:08;;;;;;;0.43;0.30;;;17.00;72.90;;;;;;6215158;23;20342;-68
2023/02/10 03:42:34;;;;;;;0.40;0.40;;;17.00;72.80;;;;;;6215016;23;20001;-67
2023/02/10 03:45:00;;;;;;;4.03;0.30;;;17.00;72.90;;;;;;6215087;23;20001;-67
2023/02/10 03:47:25;;;;;;;0.25;0.25;;;17.00;72.90;;;;;;6213599;23;20064;-67
2023/02/10 03:49:51;;;;;;;0.57;0.50;;;16.90;72.80;;;;;;6213535;23;20011;-68
2023/02/10 03:52:16;;;;;;;0.30;0.30;;;16.90;72.90;;;;;;6215277;23;20041;-67
2023/02/10 03:54:42;;;;;;;1.95;0.30;;;16.90;72.80;;;;;;6214432;23;20425;-67
2023/02/10 03:57:08;;;;;;;0.35;0.30;;;16.90;72.90;;;;;;6214670;23;20000;-67
2023/02/10 03:59:33;;;;;;;0.40;0.35;;;16.90;73.00;;;;;;6215484;23;20327;-67
2023/02/10 04:01:59;;;;;;;1.08;0.30;;;16.90;73.00;;;;;;6214959;23;19997;-67
2023/02/10 04:04:25;;;;;;;0.63;0.40;;;16.90;72.90;;;;;;6213534;23;20005;-68
2023/02/10 04:06:50;;;;;;;0.60;0.30;;;16.90;73.00;;;;;;6214967;23;20001;-68
2023/02/10 04:09:16;;;;;;;0.95;0.40;;;16.90;73.00;;;;;;6214968;23;20054;-67
2023/02/10 04:11:41;;;;;;;0.50;0.50;;;16.90;73.00;;;;;;6214706;23;20009;-67
2023/02/10 04:14:07;;;;;;;0.40;0.32;;;16.90;73.00;;;;;;6215100;23;20020;-67
2023/02/10 04:16:33;;;;;;;0.30;0.30;;;16.80;73.00;;;;;;6214697;23;19996;-67
2023/02/10 04:18:59;;;;;;;0.40;0.20;;;16.80;73.10;;;;;;6214974;23;20000;-67
2023/02/10 04:21:24;;;;;;;0.52;0.40;;;16.80;73.20;;;;;;6214968;23;20024;-67
2023/02/10 04:23:51;;;;;;;1.05;0.40;;;16.80;73.20;;;;;;6213320;23;20067;-67
2023/02/10 04:26:17;;;;;;;0.40;0.30;;;16.80;73.20;;;;;;6215010;23;20004;-67
2023/02/10 04:28:42;;;;;;;0.43;0.30;;;16.80;73.20;;;;;;6215205;23;20027;-68
2023/02/10 04:31:09;;;;;;;2.42;0.30;;;16.80;73.30;;;;;;6214418;23;20497;-68
2023/02/10 04:33:35;;;;;;;0.25;0.25;;;16.80;73.10;;;;;;6189890;23;20064;-68
2023/02/10 04:36:02;;;;;;;1.17;0.40;;;16.80;73.20;;;;;;6215977;23;20012;-67
2023/02/10 04:38:28;;;;;;;0.30;0.30;;;16.80;73.20;;;;;;6215952;23;19996;-68
2023/02/10 04:40:54;;;;;;;0.40;0.40;;;16.80;73.20;;;;;;6214291;23;20059;-68
2023/02/10 04:43:19;;;;;;;0.50;0.30;;;16.80;73.40;;;;;;6215898;23;20429;-68
2023/02/10 04:45:45;;;;;;;0.35;0.25;;;16.80;73.20;;;;;;6214242;23;20008;-68
2023/02/10 04:48:11;;;;;;;1.52;0.30;;;16.80;73.30;;;;;;6215967;23;20000;-68
2023/02/10 04:50:37;;;;;;;0.30;0.15;;;16.80;73.50;;;;;;6215668;23;20345;-68
2023/02/10 04:53:02;;;;;;;1.13;0.40;;;16.80;73.50;;;;;;6215689;23;20027;-67
2023/02/10 04:55:28;;;;;;;0.70;0.40;;;16.80;73.50;;;;;;6215472;23;20001;-68
2023/02/10 04:57:54;;;;;;;0.45;0.40;;;16.70;73.40;;;;;;6215726;23;20051;-67
2023/02/10 05:00:20;;;;;;;0.35;0.32;;;16.80;73.50;;;;;;6214406;23;20005;-67
2023/02/10 05:02:46;;;;;;;0.90;0.30;;;16.80;73.50;;;;;;6215575;23;20108;-67
2023/02/10 05:05:11;;;;;;;1.58;0.30;;;16.70;73.50;;;;;;6215455;23;20148;-68
2023/02/10 05:07:37;;;;;;;0.90;0.40;;;16.70;73.30;;;;;;6214171;23;19996;-68
2023/02/10 05:10:03;;;;;;;0.20;0.20;;;16.70;73.40;;;;;;6213909;23;20007;-68
2023/02/10 05:12:28;;;;;;;0.88;0.30;;;16.70;73.30;;;;;;6214223;23;20072;-67
2023/02/10 05:14:54;;;;;;;0.43;0.30;;;16.70;73.80;;;;;;6213603;23;20434;-67
2023/02/10 05:17:20;;;;;;;0.88;0.30;;;16.70;73.60;;;;;;6215550;23;20075;-67
2023/02/10 05:19:45;;;;;;;3.22;0.65;;;16.70;73.60;;;;;;6213982;23;20001;-67
2023/02/10 05:22:11;;;;;;;0.50;0.20;;;16.60;73.70;;;;;;6214027;23;20341;-68
2023/02/10 05:24:36;;;;;;;7.47;0.60;;;16.70;73.70;;;;;;6215208;23;20460;-67
2023/02/10 05:27:02;;;;;;;0.50;0.40;;;16.60;73.60;;;;;;6215137;23;20009;-67
2023/02/10 05:29:28;;;;;;;0.68;0.30;;;16.60;73.60;;;;;;6215696;23;20005;-67
2023/02/10 05:31:54;;;;;;;0.20;0.20;;;16.70;73.60;;;;;;6215226;23;20008;-68
2023/02/10 05:34:19;;;;;;;0.55;0.30;;;16.60;73.60;;;;;;6215331;23;20007;-68
2023/02/10 05:36:45;;;;;;;1.77;0.20;;;16.60;73.70;;;;;;6213785;23;20080;-67
2023/02/10 05:39:23;;;;;;;0.30;0.30;;;16.60;73.60;;;;;;6215024;23;20036;-67
2023/02/10 05:41:50;;;;;;;0.20;0.20;;;16.70;73.60;;;;;;6191388;23;20001;-67
2023/02/10 05:44:15;;;;;;;2.10;0.28;;;16.60;73.60;;;;;;6214014;23;20007;-68
2023/02/10 05:46:41;;;;;;;0.30;0.30;;;16.60;73.60;;;;;;6215141;23;20005;-67
2023/02/10 05:49:06;;;;;;;0.80;0.30;;;16.60;73.70;;;;;;6215300;23;20076;-68
2023/02/10 05:51:32;;;;;;;0.45;0.30;;;16.60;73.70;;;;;;6215429;23;20001;-67
2023/02/10 05:53:58;;;;;;;1.38;0.30;;;16.60;73.80;;;;;;6213403;23;20001;-67
2023/02/10 05:56:23;;;;;;;0.85;0.30;;;16.50;73.70;;;;;;6213695;23;20441;-67
2023/02/10 05:58:49;;;;;;;0.40;0.20;;;16.60;73.70;;;;;;6215234;23;20380;-68
2023/02/10 06:01:15;;;;;;;1.05;0.30;;;16.60;73.70;;;;;;6215177;23;20460;-68
2023/02/10 06:03:40;;;;;;;1.00;0.20;;;16.50;74.70;;;;;;6213880;23;20004;-67
2023/02/10 06:06:06;;;;;;;0.50;0.30;;;16.50;73.80;;;;;;6215064;23;20397;-67
2023/02/10 06:08:32;;;;;;;0.77;0.30;;;16.50;73.70;;;;;;6214734;23;20445;-68
2023/02/10 06:10:57;;;;;;;1.40;0.30;;;16.50;73.70;;;;;;6215119;23;20011;-67
2023/02/10 06:13:23;;;;;;;0.40;0.40;;;16.50;73.70;;;;;;6213616;23;20342;-67
2023/02/10 06:15:49;;;;;;;0.52;0.28;;;16.50;73.70;;;;;;6214771;23;20039;-68
2023/02/10 06:18:15;;;;;;;0.30;0.30;;;16.50;74.70;;;;;;6213601;23;20004;-67
2023/02/10 06:20:40;;;;;;;0.55;0.17;;;16.50;73.70;;;;;;6213539;23;20005;-67
2023/02/10 06:23:06;;;;;;;1.38;0.25;;;16.50;73.70;;;;;;6214585;23;20004;-67
2023/02/10 06:25:33;;;;;;;0.20;0.20;;;16.50;73.70;;;;;;6215160;23;20051;-67
2023/02/10 06:27:59;;;;;;;0.35;0.30;;;16.50;73.70;;;;;;6212963;23;20015;-67
2023/02/10 06:30:24;;;;;;;1.17;0.20;;;16.50;73.70;;;;;;6213485;23;20067;-68
2023/02/10 06:32:50;;;;;;;0.73;0.30;;;16.40;73.60;;;;;;6214765;23;19996;-67
2023/02/10 06:35:16;;;;;;;0.57;0.35;;;16.40;74.60;;;;;;6214875;23;20047;-67
2023/02/10 06:37:42;;;;;;;0.40;0.30;;;16.40;73.70;;;;;;6214506;23;20001;-67
2023/02/10 06:40:08;;;;;;;0.20;0.20;;;16.40;73.60;;;;;;6213259;23;20012;-67
2023/02/10 06:42:34;;;;;;;0.38;0.35;;;16.40;73.60;;;;;;6188474;23;20086;-68
2023/02/10 06:44:59;;;;;;;0.60;0.60;;;16.40;73.60;;;;;;6214752;23;20005;-67
2023/02/10 06:47:25;;;;;;;0.20;0.20;;;16.40;73.60;;;;;;6214751;23;20067;-67
2023/02/10 06:49:51;;;;;;;0.50;0.35;;;16.40;73.60;;;;;;6214392;23;20032;-67
2023/02/10 06:52:16;;;;;;;0.65;0.30;;;16.40;74.00;;;;;;6214305;23;20008;-68
2023/02/10 06:54:42;;;;;;;0.10;0.10;;;16.30;73.80;;;;;;6214742;23;20004;-68
2023/02/10 06:57:08;;;;;;;1.10;0.20;;;16.30;73.80;;;;;;6214502;23;20001;-68
2023/02/10 06:59:33;;;;;;;0.60;0.17;;;16.30;74.00;;;;;;6214802;23;20434;-67
2023/02/10 07:02:01;;;;;;;1.75;0.35;;;16.30;74.10;;;;;;6214494;23;20008;-67
2023/02/10 07:04:28;;;;;;;0.30;0.20;;;16.30;74.10;;;;;;6214626;23;20457;-67
2023/02/10 07:06:54;;;;;;;0.77;0.20;;;16.40;74.20;;;;;;6212805;23;20083;-67
2023/02/10 07:09:19;;;;;;;0.38;0.20;;;16.40;74.10;;;;;;6213173;23;20518;-67
2023/02/10 07:11:45;;;;;;;0.28;0.28;;;16.40;74.20;;;;;;6213281;23;20005;-68
2023/02/10 07:14:11;;;;;;;0.40;0.30;;;16.30;74.00;;;;;;6213157;23;20072;-67
2023/02/10 07:16:36;;;;;;;0.10;0.10;;;16.30;73.10;;;;;;6214312;23;20032;-67
2023/02/10 07:19:03;;;;;;;1.48;0.20;;;16.40;72.20;;;;;;6214420;23;20405;-67
2023/02/10 07:21:28;;;;;;;0.40;0.17;;;16.40;71.40;;;;;;6214379;23;20001;-67
2023/02/10 07:23:54;;;;;;;0.30;0.10;;;16.40;70.90;;;;;;6214456;23;20503;-67
2023/02/10 07:26:20;;;;;;;0.20;0.20;;;16.40;70.60;;;;;;6213209;23;20047;-67
2023/02/10 07:28:45;;;;;;;0.20;0.20;;;16.40;70.60;;;;;;6214166;23;20361;-67
2023/02/10 07:31:11;;;;;;;0.25;0.20;;;16.40;70.30;;;;;;6214308;23;20009;-67
2023/02/10 07:33:37;;;;;;;1.05;0.10;;;16.40;70.30;;;;;;6214547;23;20000;-67
2023/02/10 07:36:04;;;;;;;0.08;0.08;;;16.40;70.20;;;;;;6212764;23;20095;-67
2023/02/10 07:38:30;;;;;;;3.95;0.20;;;16.40;70.00;;;;;;6213049;23;20047;-67
2023/02/10 07:40:56;;;;;;;0.35;0.20;;;16.40;69.90;;;;;;6212901;23;20000;-67
2023/02/10 07:43:21;;;;;;;2.17;0.30;;;16.50;69.80;;;;;;6187786;23;20230;-67
2023/02/10 07:45:50;;;;;;;1.20;0.38;;;16.40;69.80;;;;;;6213045;23;20004;-67
2023/02/10 07:48:16;;;;;;;1.33;0.20;;;16.50;69.80;;;;;;6212987;23;20005;-67
2023/02/10 07:50:42;;;;;;;3.22;1.20;;;16.50;69.90;;;;;;6212672;23;20031;-67
2023/02/10 07:53:07;;;;;;;30.85;5.13;;;16.50;70.70;;;;;;6212289;23;20445;-67
2023/02/10 07:55:33;;;;;;;22.58;4.88;;;16.50;71.30;;;;;;6212620;23;20536;-67
2023/02/10 07:57:59;;;;;;;21.23;3.20;;;16.50;72.00;;;;;;6213137;23;20032;-67
2023/02/10 08:00:25;;;;;;;22.13;3.65;;;16.60;72.20;;;;;;6212888;23;20005;-67
2023/02/10 08:02:50;;;;;;;16.08;3.03;;;16.60;72.10;;;;;;6213322;23;20445;-67
2023/02/10 08:05:16;;;;;;;19.48;2.90;;;16.60;72.00;;;;;;6215905;23;20004;-67
2023/02/10 08:07:41;;;;;;;20.50;3.10;;;16.60;71.70;;;;;;6216278;23;20027;-67
2023/02/10 08:10:07;;;;;;;17.65;2.67;;;16.60;71.60;;;;;;6216028;23;20071;-67
2023/02/10 08:12:33;;;;;;;15.05;2.80;;;16.60;71.40;;;;;;6214752;23;20075;-67
2023/02/10 08:14:59;;;;;;;12.77;2.47;;;16.60;71.20;;;;;;6216203;23;20001;-67
2023/02/10 08:17:24;;;;;;;13.40;2.20;;;16.60;71.10;;;;;;6214968;23;20323;-67
2023/02/10 08:19:50;;;;;;;11.90;2.50;;;16.60;70.90;;;;;;6215687;23;20003;-67
2023/02/10 08:22:15;;;;;;;10.48;2.50;;;16.60;70.70;;;;;;6215978;23;19996;-67
2023/02/10 08:24:42;;;;;;;18.20;2.90;;;16.60;70.60;;;;;;6214492;23;20004;-66
2023/02/10 08:27:07;;;;;;;10.68;2.55;;;16.70;70.60;;;;;;6214157;23;20013;-67
2023/02/10 08:29:33;;;;;;;8.23;2.15;;;16.70;70.50;;;;;;6216050;23;20004;-67
2023/02/10 08:31:59;;;;;;;11.15;2.40;;;16.70;70.40;;;;;;6215608;23;20035;-67
2023/02/10 08:34:24;;;;;;;7.82;2.53;;;16.70;70.40;;;;;;6215873;23;20000;-67
2023/02/10 08:36:50;;;;;;;8.68;2.42;;;16.60;70.30;;;;;;6214596;23;20001;-67
2023/02/10 08:39:16;;;;;;;7.95;2.00;;;16.60;70.20;;;;;;6215713;23;20001;-67
2023/02/10 08:41:41;;;;;;;9.35;2.78;;;16.60;70.30;;;;;;6214302;23;19996;-67
2023/02/10 08:44:07;;;;;;;5.10;1.88;;;16.60;70.20;;;;;;6189371;23;20001;-67
2023/02/10 08:46:33;;;;;;;7.63;1.70;;;16.60;70.20;;;;;;6215556;23;20011;-67
2023/02/10 08:49:00;;;;;;;9.75;2.22;;;16.70;70.20;;;;;;6215797;23;20000;-67
2023/02/10 08:51:26;;;;;;;8.35;2.35;;;16.60;70.10;;;;;;6215828;23;20360;-67
2023/02/10 08:53:52;;;;;;;4.10;1.50;;;16.70;70.10;;;;;;6215410;23;20066;-67
2023/02/10 08:56:17;;;;;;;6.05;1.80;;;16.70;70.10;;;;;;6215617;23;20000;-67
2023/02/10 08:58:44;;;;;;;5.60;1.80;;;16.70;70.10;;;;;;6189309;23;20068;-67
2023/02/10 09:01:14;;;;;;;7.00;1.73;;;16.70;70.10;;;;;;6188951;23;20393;-67
2023/02/10 09:03:40;;;;;;;6.03;1.95;;;16.70;70.00;;;;;;6213897;23;20352;-67
2023/02/10 09:06:05;;;;;;;4.82;1.58;;;16.70;70.00;;;;;;6214095;23;20004;-67
2023/02/10 09:08:31;;;;;;;5.57;1.77;;;16.70;69.90;;;;;;6214076;23;20032;-67
2023/02/10 09:10:57;;;;;;;6.00;2.15;;;16.70;69.90;;;;;;6214472;23;20344;-67
2023/02/10 09:13:23;;;;;;;6.97;2.00;;;16.70;69.90;;;;;;6215159;23;20009;-67
2023/02/10 09:15:49;;;;;;;5.68;2.00;;;16.70;69.90;;;;;;6215216;23;20379;-67
2023/02/10 09:18:14;;;;;;;2.90;1.30;;;16.70;69.80;;;;;;6215464;23;20027;-67
2023/02/10 09:20:40;;;;;;;7.32;1.63;;;16.70;69.80;;;;;;6214190;23;20031;-67
2023/02/10 09:23:06;;;;;;;5.15;1.40;;;16.70;69.70;;;;;;6215471;23;20028;-67
2023/02/10 09:25:32;;;;;;;3.85;1.35;;;16.60;69.60;;;;;;6215560;23;20000;-67
2023/02/10 09:27:57;;;;;;;5.07;1.33;;;16.70;69.70;;;;;;6215230;23;20012;-67
2023/02/10 09:30:24;;;;;;;4.25;1.27;;;16.70;69.50;;;;;;6213785;23;20001;-67
2023/02/10 09:32:50;;;;;;;1.50;1.00;;;16.70;69.50;;;;;;6214201;23;20519;-67
2023/02/10 09:35:16;;;;;;;6.18;1.50;;;16.70;69.50;;;;;;6215224;23;20004;-67
2023/02/10 09:37:41;;;;;;;3.53;1.20;;;16.70;69.50;;;;;;6213915;23;20345;-67
2023/02/10 09:40:10;;;;;;;5.82;1.80;;;16.70;69.40;;;;;;6215232;23;20001;-67
2023/02/10 09:42:55;;;;;;;1.67;1.10;;;16.60;69.30;;;;;;6215333;23;20024;-67
2023/02/10 09:45:24;;;;;;;3.83;1.30;;;16.70;69.30;;;;;;6214975;23;20004;-67
2023/02/10 09:47:59;;;;;;;4.03;1.38;;;16.70;69.30;;;;;;6213951;23;20060;-67
2023/02/10 09:50:37;;;;;;;2.90;1.15;;;16.70;69.20;;;;;;6213698;23;20012;-67
2023/02/10 09:53:23;;;;;;;4.38;1.20;;;16.70;69.20;;;;;;6215256;23;20004;-67
2023/02/10 09:55:57;;;;;;;2.85;1.33;;;16.70;69.20;;;;;;6191409;23;20000;-67
2023/02/10 09:58:37;;;;;;;2.97;1.05;;;16.70;69.20;;;;;;6188980;23;20460;-67
2023/02/10 10:01:25;;;;;;;2.00;1.08;;;16.70;69.10;;;;;;6214916;23;20024;-67
2023/02/10 10:04:06;;;;;;;2.95;0.90;;;16.70;69.00;;;;;;6215070;23;20054;-67
2023/02/10 10:06:37;;;;;;;1.98;0.98;;;16.60;69.00;;;;;;6189698;23;20008;-67
2023/02/10 10:09:08;;;;;;;3.08;0.82;;;16.60;68.90;;;;;;6213858;23;20005;-67
2023/02/10 10:11:42;;;;;;;2.45;1.20;;;16.60;69.00;;;;;;6213702;23;20076;-67
2023/02/10 10:14:23;;;;;;;3.00;1.30;;;16.60;69.00;;;;;;6213139;23;20019;-67
2023/02/10 10:17:10;;;;;;;2.08;0.95;;;16.70;68.90;;;;;;6214960;23;20028;-67
2023/02/10 10:19:51;;;;;;;1.38;0.70;;;16.60;68.80;;;;;;6213600;23;20456;-67
2023/02/10 10:22:58;;;;;;;2.40;1.00;;;16.70;68.90;;;;;;6214883;23;20023;-67
2023/02/10 10:26:00;;;;;;;2.08;0.98;;;16.70;68.80;;;;;;6148044;23;20001;-67
2023/02/10 10:28:39;;;;;;;3.05;1.40;;;16.70;68.80;;;;;;6212909;23;20045;-67
2023/02/10 10:31:15;;;;;;;2.45;0.80;;;16.60;68.70;;;;;;6213515;23;20032;-67
2023/02/10 10:34:05;;;;;;;1.92;0.93;;;16.60;68.70;;;;;;6189035;23;20008;-67
2023/02/10 10:36:34;;;;;;;1.52;0.73;;;16.60;68.60;;;;;;6214678;23;20067;-67
2023/02/10 10:39:11;;;;;;;3.20;1.15;;;16.60;68.70;;;;;;6214972;23;20072;-67
2023/02/10 10:41:37;;;;;;;1.50;0.80;;;16.70;68.70;;;;;;6213189;23;20376;-67
2023/02/10 10:44:03;;;;;;;1.25;0.82;;;16.70;68.70;;;;;;6213041;23;20001;-67
2023/02/10 10:46:45;;;;;;;1.83;0.80;;;16.60;68.60;;;;;;6214747;23;20012;-67
2023/02/10 10:49:11;;;;;;;2.67;0.90;;;16.60;68.50;;;;;;6188730;23;20004;-67
2023/02/10 10:51:38;;;;;;;2.75;0.98;;;16.70;68.60;;;;;;6188295;23;20008;-67
2023/02/10 10:54:04;;;;;;;1.73;0.80;;;16.60;68.50;;;;;;6214491;23;20007;-67
2023/02/10 10:56:52;;;;;;;2.05;1.15;;;16.60;68.50;;;;;;6214503;23;20867;-67
2023/02/10 10:59:25;;;;;;;1.40;1.00;;;16.60;68.50;;;;;;6214294;23;20050;-67
2023/02/10 11:01:52;;;;;;;1.63;0.85;;;16.60;68.50;;;;;;6189083;23;20011;-67
2023/02/10 11:04:23;;;;;;;1.65;0.80;;;16.60;68.40;;;;;;6188294;23;20001;-67
2023/02/10 11:06:51;;;;;;;2.33;0.80;;;16.60;69.40;;;;;;6213250;23;20011;-67
2023/02/10 11:09:34;;;;;;;1.98;0.80;;;16.60;68.30;;;;;;6188304;23;20012;-67
2023/02/10 11:12:05;;;;;;;1.00;0.65;;;16.70;68.40;;;;;;6213147;23;20058;-67
2023/02/10 11:14:38;;;;;;;1.67;0.70;;;16.60;68.40;;;;;;6188669;23;20005;-67
2023/02/10 11:17:04;;;;;;;2.45;1.00;;;16.60;68.30;;;;;;6213098;23;19997;-67
2023/02/10 11:19:32;;;;;;;1.65;0.80;;;16.60;68.30;;;;;;6213162;23;20009;-67
2023/02/10 11:21:58;;;;;;;2.00;0.88;;;16.60;68.30;;;;;;6213116;23;20447;-67
2023/02/10 11:24:28;;;;;;;1.27;0.73;;;16.60;68.30;;;;;;6163001;23;20032;-67
2023/02/10 11:27:01;;;;;;;0.98;0.55;;;16.60;68.30;;;;;;6212398;23;20009;-67
2023/02/10 11:29:28;;;;;;;1.98;0.75;;;16.60;68.30;;;;;;6213005;23;20013;-67
2023/02/10 11:31:54;;;;;;;1.50;0.65;;;16.70;68.30;;;;;;6213050;23;20005;-67
2023/02/10 11:34:25;;;;;;;1.38;0.65;;;16.60;68.20;;;;;;6214244;23;20008;-67
2023/02/10 11:36:51;;;;;;;1.70;0.60;;;16.70;68.20;;;;;;6189545;23;20028;-67
2023/02/10 11:39:33;;;;;;;0.35;0.32;;;16.60;68.20;;;;;;6189968;23;20004;-67
2023/02/10 11:42:10;;;;;;;1.48;0.52;;;16.60;68.20;;;;;;6192697;23;20066;-67
2023/02/10 11:44:35;;;;;;;1.35;0.75;;;16.60;68.20;;;;;;6190470;23;20005;-67
2023/02/10 11:47:11;;;;;;;1.08;0.60;;;16.60;68.20;;;;;;6214965;23;20344;-67
2023/02/10 11:49:36;;;;;;;2.20;0.50;;;16.60;68.20;;;;;;6191262;23;20009;-67
2023/02/10 11:52:03;;;;;;;0.80;0.65;;;16.60;68.20;;;;;;6214944;23;20514;-67
2023/02/10 11:54:29;;;;;;;1.45;0.55;;;16.70;68.20;;;;;;6214629;23;20007;-67
2023/02/10 12:00:26;;;;;;;0.95;0.52;;;16.60;68.10;;;;;;6216133;23;20011;-67
2023/02/10 12:03:25;;;;;;;0.95;0.50;;;16.60;68.00;;;;;;6215302;23;19997;-67
2023/02/10 12:06:10;;;;;;;1.65;0.55;;;16.60;68.00;;;;;;6214982;23;20394;-67
2023/02/10 12:08:41;;;;;;;1.02;0.60;;;16.60;68.00;;;;;;6214749;23;20000;-67
2023/02/10 12:11:17;;;;;;;0.35;0.35;;;16.60;68.00;;;;;;6214451;23;20092;-67
2023/02/10 12:13:59;;;;;;;0.77;0.40;;;16.60;68.10;;;;;;6214509;23;20318;-67
2023/02/10 12:16:52;;;;;;;0.73;0.60;;;16.60;68.00;;;;;;6216084;23;20021;-67
2023/02/10 12:19:36;;;;;;;1.38;0.57;;;16.60;68.00;;;;;;6103659;23;20076;-67
2023/02/10 12:22:34;;;;;;;1.67;0.50;;;16.70;68.00;;;;;;6124378;23;20006;-67
2023/02/10 12:25:16;;;;;;;0.70;0.40;;;16.60;68.00;;;;;;6098963;23;20010;-67
2023/02/10 12:27:44;;;;;;;1.40;0.52;;;16.60;68.00;;;;;;6123947;23;20018;-67
2023/02/10 12:30:28;;;;;;;0.47;0.40;;;16.60;68.00;;;;;;6124246;23;20351;-67
2023/02/10 12:33:21;;;;;;;1.30;0.60;;;16.60;68.00;;;;;;6124235;23;20435;-67
2023/02/10 12:35:59;;;;;;;;;;;16.60;67.90;;;;;;6124465;23;20375;-67
2023/02/10 12:38:27;;;;;;;0.90;0.40;;;16.60;67.90;;;;;;6124076;23;19901;-67
2023/02/10 12:41:06;;;;;;;0.80;0.60;;;16.60;67.90;;;;;;6124174;23;20002;-67
2023/02/10 12:43:41;;;;;;;0.32;0.30;;;16.60;68.00;;;;;;6124000;23;20064;-67
2023/02/10 12:46:24;;;;;;;0.60;0.40;;;16.60;67.90;;;;;;6123959;23;20093;-67
2023/02/10 12:49:04;;;;;;;;;;;16.60;67.90;;;;;;6122401;23;20017;-67
2023/02/10 12:51:56;;;;;;;1.40;0.50;;;16.60;67.90;;;;;;6123985;23;19979;-67
2023/02/10 12:54:43;;;;;;;0.40;0.40;;;16.60;67.90;;;;;;6123680;23;20041;-68
2023/02/10 12:57:20;;;;;;;0.68;0.68;;;16.60;67.90;;;;;;6197281;23;20001;-67
2023/02/10 12:59:57;;;;;;;0.50;0.40;;;16.60;67.90;;;;;;6215573;23;19997;-67
2023/02/10 13:02:48;;;;;;;0.28;0.28;;;16.60;67.80;;;;;;6214513;23;20031;-67